sensor_id;sensor_type;location;lat;lon;timestamp;temperature;humidity
15357;DHT22;7778;48.792;9.260;2023-04-03T00:00:10;3.60;99.90
15357;DHT22;7778;48.792;9.260;2023-04-03T00:02:57;3.60;99.90
15357;DHT22;7778;48.792;9.260;2023-04-03T00:05:45;3.60;99.90
15357;DHT22;7778;48.792;9.260;2023-04-03T00:08:30;3.50;99.90
15357;DHT22;7778;48.792;9.260;2023-04-03T00:11:17;3.50;99.90
15357;DHT22;7778;48.792;9.260;2023-04-03T00:14:03;3.50;99.90
15357;DHT22;7778;48.792;9.260;2023-04-03T00:16:49;3.50;99.90
15357;DHT22;7778;48.792;9.260;2023-04-03T00:19:34;3.50;99.90
15357;DHT22;7778;48.792;9.260;2023-04-03T00:22:21;3.50;99.90
15357;DHT22;7778;48.792;9.260;2023-04-03T00:25:07;3.50;99.90
15357;DHT22;7778;48.792;9.260;2023-04-03T00:27:53;3.50;99.90
15357;DHT22;7778;48.792;9.260;2023-04-03T00:30:39;3.50;99.90
15357;DHT22;7778;48.792;9.260;2023-04-03T00:33:24;3.50;99.90
15357;DHT22;7778;48.792;9.260;2023-04-03T00:36:11;3.60;99.90
15357;DHT22;7778;48.792;9.260;2023-04-03T00:38:59;3.70;99.90
15357;DHT22;7778;48.792;9.260;2023-04-03T00:41:44;3.80;99.90
15357;DHT22;7778;48.792;9.260;2023-04-03T00:48:12;3.90;99.90
15357;DHT22;7778;48.792;9.260;2023-04-03T00:50:59;4.00;99.90
15357;DHT22;7778;48.792;9.260;2023-04-03T00:53:48;4.00;99.90
15357;DHT22;7778;48.792;9.260;2023-04-03T00:56:38;3.90;99.90
15357;DHT22;7778;48.792;9.260;2023-04-03T00:59:27;4.00;99.90
15357;DHT22;7778;48.792;9.260;2023-04-03T01:02:15;4.00;99.90
15357;DHT22;7778;48.792;9.260;2023-04-03T01:05:01;4.00;99.90
15357;DHT22;7778;48.792;9.260;2023-04-03T01:07:49;3.90;99.90
15357;DHT22;7778;48.792;9.260;2023-04-03T01:10:35;3.80;99.90
15357;DHT22;7778;48.792;9.260;2023-04-03T01:13:25;3.80;99.90
15357;DHT22;7778;48.792;9.260;2023-04-03T01:16:12;3.70;99.90
15357;DHT22;7778;48.792;9.260;2023-04-03T01:18:59;3.60;99.90
15357;DHT22;7778;48.792;9.260;2023-04-03T01:22:05;3.60;99.90
15357;DHT22;7778;48.792;9.260;2023-04-03T01:24:59;3.50;99.90
15357;DHT22;7778;48.792;9.260;2023-04-03T01:27:45;3.50;99.90
15357;DHT22;7778;48.792;9.260;2023-04-03T01:30:34;3.50;99.90
15357;DHT22;7778;48.792;9.260;2023-04-03T01:33:23;3.50;99.90
15357;DHT22;7778;48.792;9.260;2023-04-03T01:36:13;3.50;99.90
15357;DHT22;7778;48.792;9.260;2023-04-03T01:39:00;3.40;99.90
15357;DHT22;7778;48.792;9.260;2023-04-03T01:41:46;3.40;99.90
15357;DHT22;7778;48.792;9.260;2023-04-03T01:44:31;3.50;99.90
15357;DHT22;7778;48.792;9.260;2023-04-03T01:47:17;3.50;99.90
15357;DHT22;7778;48.792;9.260;2023-04-03T01:50:05;3.50;99.90
15357;DHT22;7778;48.792;9.260;2023-04-03T01:52:51;3.50;99.90
15357;DHT22;7778;48.792;9.260;2023-04-03T01:55:36;3.60;99.90
15357;DHT22;7778;48.792;9.260;2023-04-03T01:58:24;3.60;99.90
15357;DHT22;7778;48.792;9.260;2023-04-03T02:01:10;3.60;99.90
15357;DHT22;7778;48.792;9.260;2023-04-03T02:03:55;3.50;99.90
15357;DHT22;7778;48.792;9.260;2023-04-03T02:06:42;3.40;99.90
15357;DHT22;7778;48.792;9.260;2023-04-03T02:09:27;3.50;99.90
15357;DHT22;7778;48.792;9.260;2023-04-03T02:12:13;3.50;99.90
15357;DHT22;7778;48.792;9.260;2023-04-03T02:14:58;3.50;99.90
15357;DHT22;7778;48.792;9.260;2023-04-03T02:17:44;3.50;99.90
15357;DHT22;7778;48.792;9.260;2023-04-03T02:20:30;3.40;99.90
15357;DHT22;7778;48.792;9.260;2023-04-03T02:23:16;3.40;99.90
15357;DHT22;7778;48.792;9.260;2023-04-03T02:26:04;3.40;99.90
15357;DHT22;7778;48.792;9.260;2023-04-03T02:28:51;3.40;99.90
15357;DHT22;7778;48.792;9.260;2023-04-03T02:31:37;3.40;99.90
15357;DHT22;7778;48.792;9.260;2023-04-03T02:34:22;3.30;99.90
15357;DHT22;7778;48.792;9.260;2023-04-03T02:37:08;3.40;99.90
15357;DHT22;7778;48.792;9.260;2023-04-03T02:39:55;3.40;99.90
15357;DHT22;7778;48.792;9.260;2023-04-03T02:42:40;3.40;99.90
15357;DHT22;7778;48.792;9.260;2023-04-03T02:45:26;3.40;99.90
15357;DHT22;7778;48.792;9.260;2023-04-03T02:48:11;3.40;99.90
15357;DHT22;7778;48.792;9.260;2023-04-03T02:50:58;3.40;99.90
15357;DHT22;7778;48.792;9.260;2023-04-03T02:53:44;3.40;99.90
15357;DHT22;7778;48.792;9.260;2023-04-03T02:56:31;3.40;99.90
15357;DHT22;7778;48.792;9.260;2023-04-03T02:59:17;3.40;99.90
15357;DHT22;7778;48.792;9.260;2023-04-03T03:02:03;3.30;99.90
15357;DHT22;7778;48.792;9.260;2023-04-03T03:04:48;3.40;99.90
15357;DHT22;7778;48.792;9.260;2023-04-03T03:07:34;3.40;99.90
15357;DHT22;7778;48.792;9.260;2023-04-03T03:10:19;3.40;99.90
15357;DHT22;7778;48.792;9.260;2023-04-03T03:13:06;3.50;99.90
15357;DHT22;7778;48.792;9.260;2023-04-03T03:15:52;3.30;99.90
15357;DHT22;7778;48.792;9.260;2023-04-03T03:18:37;3.30;99.90
15357;DHT22;7778;48.792;9.260;2023-04-03T03:21:23;3.30;99.90
15357;DHT22;7778;48.792;9.260;2023-04-03T03:24:08;3.40;99.90
15357;DHT22;7778;48.792;9.260;2023-04-03T03:26:56;3.40;99.90
15357;DHT22;7778;48.792;9.260;2023-04-03T03:29:43;3.40;99.90
15357;DHT22;7778;48.792;9.260;2023-04-03T03:32:28;3.40;99.90
15357;DHT22;7778;48.792;9.260;2023-04-03T03:35:14;3.40;99.90
15357;DHT22;7778;48.792;9.260;2023-04-03T03:38:00;3.40;99.90
15357;DHT22;7778;48.792;9.260;2023-04-03T03:40:46;3.50;99.90
15357;DHT22;7778;48.792;9.260;2023-04-03T03:43:32;3.50;99.90
15357;DHT22;7778;48.792;9.260;2023-04-03T03:46:19;3.50;99.90
15357;DHT22;7778;48.792;9.260;2023-04-03T03:49:05;3.50;99.90
15357;DHT22;7778;48.792;9.260;2023-04-03T03:51:50;3.50;99.90
15357;DHT22;7778;48.792;9.260;2023-04-03T03:54:36;3.50;99.90
15357;DHT22;7778;48.792;9.260;2023-04-03T03:57:22;3.50;99.90
15357;DHT22;7778;48.792;9.260;2023-04-03T04:00:09;3.40;99.90
15357;DHT22;7778;48.792;9.260;2023-04-03T04:02:57;3.50;99.90
15357;DHT22;7778;48.792;9.260;2023-04-03T04:05:43;3.60;99.90
15357;DHT22;7778;48.792;9.260;2023-04-03T04:08:29;3.70;99.90
15357;DHT22;7778;48.792;9.260;2023-04-03T04:11:14;3.70;99.90
15357;DHT22;7778;48.792;9.260;2023-04-03T04:14:00;3.70;99.90
15357;DHT22;7778;48.792;9.260;2023-04-03T04:16:46;3.70;99.90
15357;DHT22;7778;48.792;9.260;2023-04-03T04:19:33;3.80;99.90
15357;DHT22;7778;48.792;9.260;2023-04-03T04:22:18;3.70;99.90
15357;DHT22;7778;48.792;9.260;2023-04-03T04:25:05;3.80;99.90
15357;DHT22;7778;48.792;9.260;2023-04-03T04:27:51;3.80;99.90
15357;DHT22;7778;48.792;9.260;2023-04-03T04:30:36;3.80;99.90
15357;DHT22;7778;48.792;9.260;2023-04-03T04:33:22;3.80;99.90
15357;DHT22;7778;48.792;9.260;2023-04-03T04:36:09;3.80;99.90
15357;DHT22;7778;48.792;9.260;2023-04-03T04:38:54;3.80;99.90
15357;DHT22;7778;48.792;9.260;2023-04-03T04:41:41;3.70;99.90
15357;DHT22;7778;48.792;9.260;2023-04-03T04:44:26;3.80;99.90
15357;DHT22;7778;48.792;9.260;2023-04-03T04:47:12;3.80;99.90
15357;DHT22;7778;48.792;9.260;2023-04-03T04:49:57;3.80;99.90
15357;DHT22;7778;48.792;9.260;2023-04-03T04:52:44;3.70;99.90
15357;DHT22;7778;48.792;9.260;2023-04-03T04:55:30;3.70;99.90
15357;DHT22;7778;48.792;9.260;2023-04-03T04:58:15;3.90;99.90
15357;DHT22;7778;48.792;9.260;2023-04-03T05:01:01;3.80;99.90
15357;DHT22;7778;48.792;9.260;2023-04-03T05:03:48;3.90;99.90
15357;DHT22;7778;48.792;9.260;2023-04-03T05:06:33;3.80;99.90
15357;DHT22;7778;48.792;9.260;2023-04-03T05:09:20;3.90;99.90
15357;DHT22;7778;48.792;9.260;2023-04-03T05:12:06;3.90;99.90
15357;DHT22;7778;48.792;9.260;2023-04-03T05:14:52;3.90;99.90
15357;DHT22;7778;48.792;9.260;2023-04-03T05:17:38;4.00;99.90
15357;DHT22;7778;48.792;9.260;2023-04-03T05:20:24;3.90;99.90
15357;DHT22;7778;48.792;9.260;2023-04-03T05:23:09;3.90;99.90
15357;DHT22;7778;48.792;9.260;2023-04-03T05:25:57;3.80;99.90
15357;DHT22;7778;48.792;9.260;2023-04-03T05:28:42;3.80;99.90
15357;DHT22;7778;48.792;9.260;2023-04-03T05:31:28;3.80;99.90
15357;DHT22;7778;48.792;9.260;2023-04-03T05:34:14;3.90;99.90
15357;DHT22;7778;48.792;9.260;2023-04-03T05:37:00;3.90;99.90
15357;DHT22;7778;48.792;9.260;2023-04-03T05:39:47;3.80;99.90
15357;DHT22;7778;48.792;9.260;2023-04-03T05:42:34;3.70;99.90
15357;DHT22;7778;48.792;9.260;2023-04-03T05:45:20;3.70;99.90
15357;DHT22;7778;48.792;9.260;2023-04-03T05:48:05;3.70;99.90
15357;DHT22;7778;48.792;9.260;2023-04-03T05:50:51;3.80;99.90
15357;DHT22;7778;48.792;9.260;2023-04-03T05:53:36;3.90;99.90
15357;DHT22;7778;48.792;9.260;2023-04-03T05:56:22;4.00;99.90
15357;DHT22;7778;48.792;9.260;2023-04-03T05:59:09;3.70;99.90
15357;DHT22;7778;48.792;9.260;2023-04-03T06:01:55;3.80;99.90
15357;DHT22;7778;48.792;9.260;2023-04-03T06:04:40;3.60;99.90
15357;DHT22;7778;48.792;9.260;2023-04-03T06:07:26;3.80;99.90
15357;DHT22;7778;48.792;9.260;2023-04-03T06:10:12;4.00;99.90
15357;DHT22;7778;48.792;9.260;2023-04-03T06:12:58;4.10;99.90
15357;DHT22;7778;48.792;9.260;2023-04-03T06:15:45;4.30;99.90
15357;DHT22;7778;48.792;9.260;2023-04-03T06:18:30;4.30;99.90
15357;DHT22;7778;48.792;9.260;2023-04-03T06:21:16;4.50;99.90
15357;DHT22;7778;48.792;9.260;2023-04-03T06:24:02;4.40;99.90
15357;DHT22;7778;48.792;9.260;2023-04-03T06:26:48;4.50;99.90
15357;DHT22;7778;48.792;9.260;2023-04-03T06:29:35;4.40;99.90
15357;DHT22;7778;48.792;9.260;2023-04-03T06:32:22;4.60;99.90
15357;DHT22;7778;48.792;9.260;2023-04-03T06:35:08;4.40;99.90
15357;DHT22;7778;48.792;9.260;2023-04-03T06:37:54;4.50;99.90
15357;DHT22;7778;48.792;9.260;2023-04-03T06:40:40;4.50;99.90
15357;DHT22;7778;48.792;9.260;2023-04-03T06:43:25;4.50;99.90
15357;DHT22;7778;48.792;9.260;2023-04-03T06:46:14;4.50;99.90
15357;DHT22;7778;48.792;9.260;2023-04-03T06:49:02;4.50;99.90
15357;DHT22;7778;48.792;9.260;2023-04-03T06:51:48;4.50;99.90
15357;DHT22;7778;48.792;9.260;2023-04-03T06:54:33;4.70;99.90
15357;DHT22;7778;48.792;9.260;2023-04-03T06:57:19;4.70;99.90
15357;DHT22;7778;48.792;9.260;2023-04-03T07:00:06;4.60;99.90
15357;DHT22;7778;48.792;9.260;2023-04-03T07:02:53;4.50;99.90
15357;DHT22;7778;48.792;9.260;2023-04-03T07:05:42;4.30;99.90
15357;DHT22;7778;48.792;9.260;2023-04-03T07:08:28;4.50;99.90
15357;DHT22;7778;48.792;9.260;2023-04-03T07:11:14;4.40;99.90
15357;DHT22;7778;48.792;9.260;2023-04-03T07:14:01;4.30;99.90
15357;DHT22;7778;48.792;9.260;2023-04-03T07:16:46;4.40;99.90
15357;DHT22;7778;48.792;9.260;2023-04-03T07:19:32;4.50;99.90
15357;DHT22;7778;48.792;9.260;2023-04-03T07:22:19;4.70;99.90
15357;DHT22;7778;48.792;9.260;2023-04-03T07:25:05;4.80;99.90
15357;DHT22;7778;48.792;9.260;2023-04-03T07:27:52;4.90;99.90
15357;DHT22;7778;48.792;9.260;2023-04-03T07:30:43;4.80;99.90
15357;DHT22;7778;48.792;9.260;2023-04-03T07:33:29;4.90;99.90
15357;DHT22;7778;48.792;9.260;2023-04-03T07:36:17;4.90;99.90
15357;DHT22;7778;48.792;9.260;2023-04-03T07:39:06;5.00;99.90
15357;DHT22;7778;48.792;9.260;2023-04-03T07:41:52;5.10;99.90
15357;DHT22;7778;48.792;9.260;2023-04-03T07:44:39;5.20;99.90
15357;DHT22;7778;48.792;9.260;2023-04-03T07:47:25;5.20;99.90
15357;DHT22;7778;48.792;9.260;2023-04-03T07:50:11;5.20;99.90
15357;DHT22;7778;48.792;9.260;2023-04-03T07:52:56;5.10;99.90
15357;DHT22;7778;48.792;9.260;2023-04-03T07:55:46;5.20;99.90
15357;DHT22;7778;48.792;9.260;2023-04-03T07:58:32;5.20;99.90
15357;DHT22;7778;48.792;9.260;2023-04-03T08:01:17;5.20;99.90
15357;DHT22;7778;48.792;9.260;2023-04-03T08:04:03;5.30;99.90
15357;DHT22;7778;48.792;9.260;2023-04-03T08:06:49;5.30;99.90
15357;DHT22;7778;48.792;9.260;2023-04-03T08:09:35;5.40;99.90
15357;DHT22;7778;48.792;9.260;2023-04-03T08:12:22;5.40;99.90
15357;DHT22;7778;48.792;9.260;2023-04-03T08:15:08;5.50;99.90
15357;DHT22;7778;48.792;9.260;2023-04-03T08:17:54;5.80;99.90
15357;DHT22;7778;48.792;9.260;2023-04-03T08:20:41;5.70;99.90
15357;DHT22;7778;48.792;9.260;2023-04-03T08:23:26;5.60;99.90
15357;DHT22;7778;48.792;9.260;2023-04-03T08:26:14;5.60;99.90
15357;DHT22;7778;48.792;9.260;2023-04-03T08:29:02;5.40;99.90
15357;DHT22;7778;48.792;9.260;2023-04-03T08:31:48;5.80;99.90
15357;DHT22;7778;48.792;9.260;2023-04-03T08:34:35;6.10;99.90
15357;DHT22;7778;48.792;9.260;2023-04-03T08:37:23;6.40;99.90
15357;DHT22;7778;48.792;9.260;2023-04-03T08:40:13;6.60;99.90
15357;DHT22;7778;48.792;9.260;2023-04-03T08:43:12;7.00;99.90
15357;DHT22;7778;48.792;9.260;2023-04-03T08:46:11;7.40;99.90
15357;DHT22;7778;48.792;9.260;2023-04-03T08:48:59;7.70;99.90
15357;DHT22;7778;48.792;9.260;2023-04-03T08:51:46;7.50;99.90
15357;DHT22;7778;48.792;9.260;2023-04-03T08:54:40;7.10;99.90
15357;DHT22;7778;48.792;9.260;2023-04-03T08:57:34;6.50;99.90
15357;DHT22;7778;48.792;9.260;2023-04-03T09:00:24;6.30;99.90
15357;DHT22;7778;48.792;9.260;2023-04-03T09:03:14;6.40;99.90
15357;DHT22;7778;48.792;9.260;2023-04-03T09:06:04;5.90;99.90
15357;DHT22;7778;48.792;9.260;2023-04-03T09:09:00;5.80;99.90
15357;DHT22;7778;48.792;9.260;2023-04-03T09:11:56;5.80;99.90
15357;DHT22;7778;48.792;9.260;2023-04-03T09:14:53;5.90;99.90
15357;DHT22;7778;48.792;9.260;2023-04-03T09:17:58;6.00;99.90
15357;DHT22;7778;48.792;9.260;2023-04-03T09:20:55;6.10;99.90
15357;DHT22;7778;48.792;9.260;2023-04-03T09:23:46;6.10;99.90
15357;DHT22;7778;48.792;9.260;2023-04-03T09:26:38;6.00;99.90
15357;DHT22;7778;48.792;9.260;2023-04-03T09:29:27;6.00;99.90
15357;DHT22;7778;48.792;9.260;2023-04-03T09:32:21;6.20;99.90
15357;DHT22;7778;48.792;9.260;2023-04-03T09:35:18;6.20;99.90
15357;DHT22;7778;48.792;9.260;2023-04-03T09:38:21;6.40;99.90
15357;DHT22;7778;48.792;9.260;2023-04-03T09:41:16;6.40;99.90
15357;DHT22;7778;48.792;9.260;2023-04-03T09:44:02;6.40;99.90
15357;DHT22;7778;48.792;9.260;2023-04-03T09:46:48;6.30;99.90
15357;DHT22;7778;48.792;9.260;2023-04-03T09:49:34;6.50;99.90
15357;DHT22;7778;48.792;9.260;2023-04-03T09:52:23;6.70;99.90
15357;DHT22;7778;48.792;9.260;2023-04-03T09:55:16;7.00;99.90
15357;DHT22;7778;48.792;9.260;2023-04-03T09:58:04;7.00;99.90
15357;DHT22;7778;48.792;9.260;2023-04-03T10:01:23;6.90;99.90
15357;DHT22;7778;48.792;9.260;2023-04-03T10:04:13;6.70;99.90
15357;DHT22;7778;48.792;9.260;2023-04-03T10:06:59;6.50;99.90
15357;DHT22;7778;48.792;9.260;2023-04-03T10:09:54;6.60;99.90
15357;DHT22;7778;48.792;9.260;2023-04-03T10:12:42;6.40;99.90
15357;DHT22;7778;48.792;9.260;2023-04-03T10:15:30;6.50;99.90
15357;DHT22;7778;48.792;9.260;2023-04-03T10:18:32;7.00;99.90
15357;DHT22;7778;48.792;9.260;2023-04-03T10:21:32;6.90;99.90
15357;DHT22;7778;48.792;9.260;2023-04-03T10:24:25;6.80;99.90
15357;DHT22;7778;48.792;9.260;2023-04-03T10:27:18;6.60;99.90
15357;DHT22;7778;48.792;9.260;2023-04-03T10:30:21;6.50;99.90
15357;DHT22;7778;48.792;9.260;2023-04-03T10:33:34;6.40;99.90
15357;DHT22;7778;48.792;9.260;2023-04-03T10:36:33;6.40;99.90
15357;DHT22;7778;48.792;9.260;2023-04-03T10:39:29;6.40;99.90
15357;DHT22;7778;48.792;9.260;2023-04-03T10:42:22;6.40;99.90
15357;DHT22;7778;48.792;9.260;2023-04-03T10:45:24;6.40;99.90
15357;DHT22;7778;48.792;9.260;2023-04-03T10:48:15;6.30;99.90
15357;DHT22;7778;48.792;9.260;2023-04-03T10:51:13;6.30;99.90
15357;DHT22;7778;48.792;9.260;2023-04-03T10:54:08;6.20;99.90
15357;DHT22;7778;48.792;9.260;2023-04-03T10:57:00;6.10;99.90
15357;DHT22;7778;48.792;9.260;2023-04-03T10:59:49;6.20;99.90
15357;DHT22;7778;48.792;9.260;2023-04-03T11:02:39;6.40;99.90
15357;DHT22;7778;48.792;9.260;2023-04-03T11:05:31;6.70;99.90
15357;DHT22;7778;48.792;9.260;2023-04-03T11:08:25;6.80;99.90
15357;DHT22;7778;48.792;9.260;2023-04-03T11:11:15;6.70;99.90
15357;DHT22;7778;48.792;9.260;2023-04-03T11:14:05;6.50;99.90
15357;DHT22;7778;48.792;9.260;2023-04-03T11:17:05;6.40;99.90
15357;DHT22;7778;48.792;9.260;2023-04-03T11:20:03;6.40;99.90
15357;DHT22;7778;48.792;9.260;2023-04-03T11:22:57;6.60;99.90
15357;DHT22;7778;48.792;9.260;2023-04-03T11:25:45;6.50;99.90
15357;DHT22;7778;48.792;9.260;2023-04-03T11:28:31;6.70;99.90
15357;DHT22;7778;48.792;9.260;2023-04-03T11:31:36;6.80;99.90
15357;DHT22;7778;48.792;9.260;2023-04-03T11:34:33;6.90;99.90
15357;DHT22;7778;48.792;9.260;2023-04-03T11:37:31;6.90;99.90
15357;DHT22;7778;48.792;9.260;2023-04-03T11:40:23;6.70;99.90
15357;DHT22;7778;48.792;9.260;2023-04-03T11:43:22;6.60;99.90
15357;DHT22;7778;48.792;9.260;2023-04-03T11:46:10;6.60;99.90
15357;DHT22;7778;48.792;9.260;2023-04-03T11:48:56;6.70;99.90
15357;DHT22;7778;48.792;9.260;2023-04-03T11:51:43;6.80;99.90
15357;DHT22;7778;48.792;9.260;2023-04-03T11:54:48;6.80;99.90
15357;DHT22;7778;48.792;9.260;2023-04-03T11:58:03;6.90;99.90
15357;DHT22;7778;48.792;9.260;2023-04-03T12:01:04;6.90;99.90
15357;DHT22;7778;48.792;9.260;2023-04-03T12:04:08;6.70;99.90
15357;DHT22;7778;48.792;9.260;2023-04-03T12:07:16;6.50;99.90
15357;DHT22;7778;48.792;9.260;2023-04-03T12:10:18;6.50;99.90
15357;DHT22;7778;48.792;9.260;2023-04-03T12:13:14;6.60;99.90
15357;DHT22;7778;48.792;9.260;2023-04-03T12:16:02;6.90;99.90
15357;DHT22;7778;48.792;9.260;2023-04-03T12:19:00;7.10;99.90
15357;DHT22;7778;48.792;9.260;2023-04-03T12:22:08;7.10;99.90
15357;DHT22;7778;48.792;9.260;2023-04-03T12:28:39;6.90;99.90
15357;DHT22;7778;48.792;9.260;2023-04-03T12:31:37;6.80;99.90
15357;DHT22;7778;48.792;9.260;2023-04-03T12:34:38;6.80;99.90
15357;DHT22;7778;48.792;9.260;2023-04-03T12:37:57;6.70;99.90
15357;DHT22;7778;48.792;9.260;2023-04-03T12:41:22;6.60;99.90
15357;DHT22;7778;48.792;9.260;2023-04-03T12:44:23;6.90;99.90
15357;DHT22;7778;48.792;9.260;2023-04-03T12:47:23;6.90;99.90
15357;DHT22;7778;48.792;9.260;2023-04-03T12:50:18;6.80;99.90
15357;DHT22;7778;48.792;9.260;2023-04-03T12:53:12;7.00;99.90
15357;DHT22;7778;48.792;9.260;2023-04-03T12:56:20;7.10;99.90
15357;DHT22;7778;48.792;9.260;2023-04-03T12:59:20;7.50;99.90
15357;DHT22;7778;48.792;9.260;2023-04-03T13:02:20;7.90;99.90
15357;DHT22;7778;48.792;9.260;2023-04-03T13:05:09;8.00;99.90
15357;DHT22;7778;48.792;9.260;2023-04-03T13:08:03;7.80;99.90
15357;DHT22;7778;48.792;9.260;2023-04-03T13:10:54;7.70;99.90
15357;DHT22;7778;48.792;9.260;2023-04-03T13:13:54;7.60;99.90
15357;DHT22;7778;48.792;9.260;2023-04-03T13:16:53;7.40;99.90
15357;DHT22;7778;48.792;9.260;2023-04-03T13:19:40;7.20;99.90
15357;DHT22;7778;48.792;9.260;2023-04-03T13:22:31;7.30;99.90
15357;DHT22;7778;48.792;9.260;2023-04-03T13:25:24;7.00;99.90
15357;DHT22;7778;48.792;9.260;2023-04-03T13:28:14;7.10;99.90
15357;DHT22;7778;48.792;9.260;2023-04-03T13:31:07;7.30;99.90
15357;DHT22;7778;48.792;9.260;2023-04-03T13:34:04;7.60;99.90
15357;DHT22;7778;48.792;9.260;2023-04-03T13:36:56;8.00;99.90
15357;DHT22;7778;48.792;9.260;2023-04-03T13:39:43;8.10;99.90
15357;DHT22;7778;48.792;9.260;2023-04-03T13:42:31;8.20;99.90
15357;DHT22;7778;48.792;9.260;2023-04-03T13:45:21;8.20;99.90
15357;DHT22;7778;48.792;9.260;2023-04-03T13:48:16;8.00;99.90
15357;DHT22;7778;48.792;9.260;2023-04-03T13:51:05;8.00;99.90
15357;DHT22;7778;48.792;9.260;2023-04-03T13:54:00;8.10;99.90
15357;DHT22;7778;48.792;9.260;2023-04-03T13:56:57;8.20;99.90
15357;DHT22;7778;48.792;9.260;2023-04-03T13:59:44;7.90;99.90
15357;DHT22;7778;48.792;9.260;2023-04-03T14:02:31;7.90;99.90
15357;DHT22;7778;48.792;9.260;2023-04-03T14:05:19;7.80;99.90
15357;DHT22;7778;48.792;9.260;2023-04-03T14:08:08;7.70;99.90
15357;DHT22;7778;48.792;9.260;2023-04-03T14:10:54;7.80;99.90
15357;DHT22;7778;48.792;9.260;2023-04-03T14:13:40;7.50;99.90
15357;DHT22;7778;48.792;9.260;2023-04-03T14:16:31;7.30;99.90
15357;DHT22;7778;48.792;9.260;2023-04-03T14:19:21;7.40;99.90
15357;DHT22;7778;48.792;9.260;2023-04-03T14:22:15;7.40;99.90
15357;DHT22;7778;48.792;9.260;2023-04-03T14:25:02;7.30;99.90
15357;DHT22;7778;48.792;9.260;2023-04-03T14:27:50;7.20;99.90
15357;DHT22;7778;48.792;9.260;2023-04-03T14:30:37;7.60;99.90
15357;DHT22;7778;48.792;9.260;2023-04-03T14:33:23;8.20;99.90
15357;DHT22;7778;48.792;9.260;2023-04-03T14:36:13;8.30;99.90
15357;DHT22;7778;48.792;9.260;2023-04-03T14:39:01;8.10;99.90
15357;DHT22;7778;48.792;9.260;2023-04-03T14:41:47;7.90;99.90
15357;DHT22;7778;48.792;9.260;2023-04-03T14:44:33;7.90;99.90
15357;DHT22;7778;48.792;9.260;2023-04-03T14:47:22;8.00;99.90
15357;DHT22;7778;48.792;9.260;2023-04-03T14:50:16;7.90;99.90
15357;DHT22;7778;48.792;9.260;2023-04-03T14:53:05;7.80;99.90
15357;DHT22;7778;48.792;9.260;2023-04-03T14:55:52;7.70;99.90
15357;DHT22;7778;48.792;9.260;2023-04-03T14:58:38;7.70;99.90
15357;DHT22;7778;48.792;9.260;2023-04-03T15:01:24;7.60;99.90
15357;DHT22;7778;48.792;9.260;2023-04-03T15:04:11;7.50;99.90
15357;DHT22;7778;48.792;9.260;2023-04-03T15:06:58;7.40;99.90
15357;DHT22;7778;48.792;9.260;2023-04-03T15:09:44;7.50;99.90
15357;DHT22;7778;48.792;9.260;2023-04-03T15:12:31;7.60;99.90
15357;DHT22;7778;48.792;9.260;2023-04-03T15:15:19;7.60;99.90
15357;DHT22;7778;48.792;9.260;2023-04-03T15:18:05;7.40;99.90
15357;DHT22;7778;48.792;9.260;2023-04-03T15:20:52;7.40;99.90
15357;DHT22;7778;48.792;9.260;2023-04-03T15:23:41;7.00;99.90
15357;DHT22;7778;48.792;9.260;2023-04-03T15:26:27;6.90;99.90
15357;DHT22;7778;48.792;9.260;2023-04-03T15:29:14;6.80;99.90
15357;DHT22;7778;48.792;9.260;2023-04-03T15:32:00;6.70;99.90
15357;DHT22;7778;48.792;9.260;2023-04-03T15:34:46;6.80;99.90
15357;DHT22;7778;48.792;9.260;2023-04-03T15:37:31;6.50;99.90
15357;DHT22;7778;48.792;9.260;2023-04-03T15:40:17;6.40;99.90
15357;DHT22;7778;48.792;9.260;2023-04-03T15:43:04;6.50;99.90
15357;DHT22;7778;48.792;9.260;2023-04-03T15:45:52;6.60;99.90
15357;DHT22;7778;48.792;9.260;2023-04-03T15:48:37;6.80;99.90
15357;DHT22;7778;48.792;9.260;2023-04-03T15:51:23;7.00;99.90
15357;DHT22;7778;48.792;9.260;2023-04-03T15:54:09;7.20;99.90
15357;DHT22;7778;48.792;9.260;2023-04-03T15:56:55;7.20;99.90
15357;DHT22;7778;48.792;9.260;2023-04-03T15:59:41;7.20;99.90
15357;DHT22;7778;48.792;9.260;2023-04-03T16:02:28;7.30;99.90
15357;DHT22;7778;48.792;9.260;2023-04-03T16:05:15;7.40;99.90
15357;DHT22;7778;48.792;9.260;2023-04-03T16:08:01;7.30;99.90
15357;DHT22;7778;48.792;9.260;2023-04-03T16:10:47;7.20;99.90
15357;DHT22;7778;48.792;9.260;2023-04-03T16:13:33;7.20;99.90
15357;DHT22;7778;48.792;9.260;2023-04-03T16:16:19;7.00;99.90
15357;DHT22;7778;48.792;9.260;2023-04-03T16:19:06;6.70;99.90
15357;DHT22;7778;48.792;9.260;2023-04-03T16:21:53;6.60;99.90
15357;DHT22;7778;48.792;9.260;2023-04-03T16:24:39;6.60;99.90
15357;DHT22;7778;48.792;9.260;2023-04-03T16:27:24;6.60;99.90
15357;DHT22;7778;48.792;9.260;2023-04-03T16:30:11;6.80;99.90
15357;DHT22;7778;48.792;9.260;2023-04-03T16:32:57;7.10;99.90
15357;DHT22;7778;48.792;9.260;2023-04-03T16:35:44;7.40;99.90
15357;DHT22;7778;48.792;9.260;2023-04-03T16:38:29;7.30;99.90
15357;DHT22;7778;48.792;9.260;2023-04-03T16:41:15;7.40;99.90
15357;DHT22;7778;48.792;9.260;2023-04-03T16:44:01;7.30;99.90
15357;DHT22;7778;48.792;9.260;2023-04-03T16:46:46;7.10;99.90
15357;DHT22;7778;48.792;9.260;2023-04-03T16:49:32;7.00;99.20
15357;DHT22;7778;48.792;9.260;2023-04-03T16:52:19;6.90;99.90
15357;DHT22;7778;48.792;9.260;2023-04-03T16:55:06;6.80;99.90
15357;DHT22;7778;48.792;9.260;2023-04-03T16:57:52;6.80;99.90
15357;DHT22;7778;48.792;9.260;2023-04-03T17:00:38;6.80;99.90
15357;DHT22;7778;48.792;9.260;2023-04-03T17:03:23;6.80;99.90
15357;DHT22;7778;48.792;9.260;2023-04-03T17:06:11;6.80;99.90
15357;DHT22;7778;48.792;9.260;2023-04-03T17:09:01;6.80;99.90
15357;DHT22;7778;48.792;9.260;2023-04-03T17:11:47;6.80;99.90
15357;DHT22;7778;48.792;9.260;2023-04-03T17:14:33;6.70;99.90
15357;DHT22;7778;48.792;9.260;2023-04-03T17:17:22;6.60;99.90
15357;DHT22;7778;48.792;9.260;2023-04-03T17:20:09;6.60;99.90
15357;DHT22;7778;48.792;9.260;2023-04-03T17:22:56;6.50;99.90
15357;DHT22;7778;48.792;9.260;2023-04-03T17:25:43;6.50;99.90
15357;DHT22;7778;48.792;9.260;2023-04-03T17:28:28;6.30;99.90
15357;DHT22;7778;48.792;9.260;2023-04-03T17:31:14;6.30;99.90
15357;DHT22;7778;48.792;9.260;2023-04-03T17:34:00;6.30;99.90
15357;DHT22;7778;48.792;9.260;2023-04-03T17:36:45;6.10;99.90
15357;DHT22;7778;48.792;9.260;2023-04-03T17:39:31;6.10;99.90
15357;DHT22;7778;48.792;9.260;2023-04-03T17:42:18;6.20;99.90
15357;DHT22;7778;48.792;9.260;2023-04-03T17:45:05;6.20;99.90
15357;DHT22;7778;48.792;9.260;2023-04-03T17:47:52;6.10;99.90
15357;DHT22;7778;48.792;9.260;2023-04-03T17:50:37;6.00;99.90
15357;DHT22;7778;48.792;9.260;2023-04-03T17:53:23;6.00;99.90
15357;DHT22;7778;48.792;9.260;2023-04-03T17:56:12;6.00;99.90
15357;DHT22;7778;48.792;9.260;2023-04-03T17:59:00;5.90;99.90
15357;DHT22;7778;48.792;9.260;2023-04-03T18:01:46;6.00;99.90
15357;DHT22;7778;48.792;9.260;2023-04-03T18:04:32;5.90;99.90
15357;DHT22;7778;48.792;9.260;2023-04-03T18:07:18;5.70;99.90
15357;DHT22;7778;48.792;9.260;2023-04-03T18:10:05;5.70;99.90
15357;DHT22;7778;48.792;9.260;2023-04-03T18:12:55;5.70;99.90
15357;DHT22;7778;48.792;9.260;2023-04-03T18:15:42;5.80;99.90
15357;DHT22;7778;48.792;9.260;2023-04-03T18:18:28;5.60;99.90
15357;DHT22;7778;48.792;9.260;2023-04-03T18:21:14;5.70;99.90
15357;DHT22;7778;48.792;9.260;2023-04-03T18:24:00;5.70;99.90
15357;DHT22;7778;48.792;9.260;2023-04-03T18:26:49;5.70;99.90
15357;DHT22;7778;48.792;9.260;2023-04-03T18:29:39;5.60;99.90